Jovita, Washington
Current Conditions -  °F | °C
As of 1:13 AM on Wednesday 22 Oct 2014 (Local Time) from KTCM Reporting Station
Light Rain Light Rain  
Wind Chill: 59°   Ceiling: 6000
Heat Index: 59°   Visibility: 10mi
Dew Point: 48°   Wind: 21mph
Humidity: 67%   Direction: 170°S
Pressure: 29.72"   Gusts: 26mph
Location:  47.1905°N, 122.328°W
Report Text: KTCM 220813Z AUTO 17018G23KT 10SM -RA FEW049 BKN060 OVC080 15/09 A2972 RMK AO2
Loading
Personal Weather Stations






























Interactive Weather Map
Tropical Storm Tracking
New forecast layout! Learn more

10-Day Weather Forecast

Advertisements
Track Severe Weather on mobile